sensor_id;sensor_type;location;lat;lon;timestamp;P1;durP1;ratioP1;P2;durP2;ratioP2
27199;SDS011;14714;48.106;11.546;2022-08-01T00:00:06;3.55;;;2.92;;
27199;SDS011;14714;48.106;11.546;2022-08-01T00:02:38;3.10;;;2.80;;
27199;SDS011;14714;48.106;11.546;2022-08-01T00:05:06;3.22;;;2.92;;
27199;SDS011;14714;48.106;11.546;2022-08-01T00:07:34;3.22;;;2.95;;
27199;SDS011;14714;48.106;11.546;2022-08-01T00:10:02;3.58;;;3.15;;
27199;SDS011;14714;48.106;11.546;2022-08-01T00:12:33;3.88;;;2.88;;
27199;SDS011;14714;48.106;11.546;2022-08-01T00:15:00;3.38;;;2.90;;
27199;SDS011;14714;48.106;11.546;2022-08-01T00:17:27;3.35;;;2.70;;
27199;SDS011;14714;48.106;11.546;2022-08-01T00:19:53;3.22;;;2.70;;
27199;SDS011;14714;48.106;11.546;2022-08-01T00:22:20;3.75;;;2.60;;
27199;SDS011;14714;48.106;11.546;2022-08-01T00:24:47;3.92;;;2.78;;
27199;SDS011;14714;48.106;11.546;2022-08-01T00:27:14;4.15;;;2.60;;
27199;SDS011;14714;48.106;11.546;2022-08-01T00:29:41;3.17;;;2.53;;
27199;SDS011;14714;48.106;11.546;2022-08-01T00:32:30;3.45;;;2.40;;
27199;SDS011;14714;48.106;11.546;2022-08-01T00:34:58;3.13;;;2.50;;
27199;SDS011;14714;48.106;11.546;2022-08-01T00:37:24;3.40;;;2.53;;
27199;SDS011;14714;48.106;11.546;2022-08-01T00:39:52;2.55;;;2.20;;
27199;SDS011;14714;48.106;11.546;2022-08-01T00:42:19;2.60;;;2.40;;
27199;SDS011;14714;48.106;11.546;2022-08-01T00:44:46;3.75;;;2.75;;
27199;SDS011;14714;48.106;11.546;2022-08-01T00:47:13;3.03;;;2.70;;
27199;SDS011;14714;48.106;11.546;2022-08-01T00:49:40;3.03;;;2.63;;
27199;SDS011;14714;48.106;11.546;2022-08-01T00:52:07;3.03;;;2.72;;
27199;SDS011;14714;48.106;11.546;2022-08-01T00:54:35;2.70;;;2.50;;
27199;SDS011;14714;48.106;11.546;2022-08-01T00:57:02;2.90;;;2.70;;
27199;SDS011;14714;48.106;11.546;2022-08-01T00:59:29;4.18;;;2.50;;
27199;SDS011;14714;48.106;11.546;2022-08-01T01:01:57;2.97;;;2.58;;
27199;SDS011;14714;48.106;11.546;2022-08-01T01:04:24;3.25;;;2.53;;
27199;SDS011;14714;48.106;11.546;2022-08-01T01:09:41;2.83;;;2.47;;
27199;SDS011;14714;48.106;11.546;2022-08-01T01:12:28;2.50;;;2.30;;
27199;SDS011;14714;48.106;11.546;2022-08-01T01:15:17;2.80;;;2.42;;
27199;SDS011;14714;48.106;11.546;2022-08-01T01:17:57;3.08;;;2.47;;
27199;SDS011;14714;48.106;11.546;2022-08-01T01:20:30;3.25;;;2.35;;
27199;SDS011;14714;48.106;11.546;2022-08-01T01:33:47;2.97;;;2.55;;
27199;SDS011;14714;48.106;11.546;2022-08-01T01:36:16;3.17;;;2.53;;
27199;SDS011;14714;48.106;11.546;2022-08-01T01:38:45;3.13;;;2.40;;
27199;SDS011;14714;48.106;11.546;2022-08-01T01:41:15;3.15;;;2.40;;
27199;SDS011;14714;48.106;11.546;2022-08-01T01:43:43;3.77;;;2.50;;
27199;SDS011;14714;48.106;11.546;2022-08-01T01:46:12;4.15;;;2.70;;
27199;SDS011;14714;48.106;11.546;2022-08-01T01:48:43;3.90;;;2.90;;
27199;SDS011;14714;48.106;11.546;2022-08-01T01:51:12;3.10;;;2.50;;
27199;SDS011;14714;48.106;11.546;2022-08-01T01:53:41;3.75;;;2.53;;
27199;SDS011;14714;48.106;11.546;2022-08-01T01:56:10;2.88;;;2.60;;
27199;SDS011;14714;48.106;11.546;2022-08-01T01:58:40;3.08;;;2.67;;
27199;SDS011;14714;48.106;11.546;2022-08-01T02:01:09;3.65;;;2.55;;
27199;SDS011;14714;48.106;11.546;2022-08-01T02:03:40;4.65;;;2.90;;
27199;SDS011;14714;48.106;11.546;2022-08-01T02:06:09;2.97;;;2.50;;
27199;SDS011;14714;48.106;11.546;2022-08-01T02:13:38;3.85;;;2.45;;
27199;SDS011;14714;48.106;11.546;2022-08-01T02:16:06;2.63;;;2.42;;
27199;SDS011;14714;48.106;11.546;2022-08-01T02:18:37;2.50;;;2.30;;
27199;SDS011;14714;48.106;11.546;2022-08-01T02:21:05;2.83;;;2.45;;
27199;SDS011;14714;48.106;11.546;2022-08-01T02:23:38;4.60;;;2.42;;
27199;SDS011;14714;48.106;11.546;2022-08-01T02:26:10;3.72;;;2.70;;
27199;SDS011;14714;48.106;11.546;2022-08-01T02:28:49;2.78;;;2.58;;
27199;SDS011;14714;48.106;11.546;2022-08-01T02:31:21;2.58;;;2.38;;
27199;SDS011;14714;48.106;11.546;2022-08-01T02:33:57;2.63;;;2.15;;
27199;SDS011;14714;48.106;11.546;2022-08-01T02:36:32;3.53;;;2.60;;
27199;SDS011;14714;48.106;11.546;2022-08-01T02:39:03;3.03;;;2.50;;
27199;SDS011;14714;48.106;11.546;2022-08-01T02:41:38;2.88;;;2.42;;
27199;SDS011;14714;48.106;11.546;2022-08-01T02:44:09;3.90;;;2.80;;
27199;SDS011;14714;48.106;11.546;2022-08-01T02:46:43;2.53;;;2.33;;
27199;SDS011;14714;48.106;11.546;2022-08-01T02:49:16;2.42;;;2.22;;
27199;SDS011;14714;48.106;11.546;2022-08-01T02:51:46;5.70;;;2.57;;
27199;SDS011;14714;48.106;11.546;2022-08-01T02:54:14;2.83;;;2.13;;
27199;SDS011;14714;48.106;11.546;2022-08-01T02:56:43;2.95;;;2.65;;
27199;SDS011;14714;48.106;11.546;2022-08-01T02:59:13;2.63;;;2.42;;
27199;SDS011;14714;48.106;11.546;2022-08-01T03:01:47;3.20;;;2.40;;
27199;SDS011;14714;48.106;11.546;2022-08-01T03:04:16;2.85;;;2.47;;
27199;SDS011;14714;48.106;11.546;2022-08-01T03:06:45;3.80;;;2.45;;
27199;SDS011;14714;48.106;11.546;2022-08-01T03:09:14;2.78;;;2.53;;
27199;SDS011;14714;48.106;11.546;2022-08-01T03:11:43;3.33;;;2.50;;
27199;SDS011;14714;48.106;11.546;2022-08-01T03:14:11;3.03;;;2.72;;
27199;SDS011;14714;48.106;11.546;2022-08-01T03:16:41;2.70;;;2.40;;
27199;SDS011;14714;48.106;11.546;2022-08-01T03:19:10;2.58;;;2.30;;
27199;SDS011;14714;48.106;11.546;2022-08-01T03:21:39;4.35;;;2.55;;
27199;SDS011;14714;48.106;11.546;2022-08-01T03:24:09;6.38;;;2.80;;
27199;SDS011;14714;48.106;11.546;2022-08-01T03:26:38;3.10;;;2.60;;
27199;SDS011;14714;48.106;11.546;2022-08-01T03:29:06;4.05;;;2.40;;
27199;SDS011;14714;48.106;11.546;2022-08-01T03:31:37;3.72;;;2.67;;
27199;SDS011;14714;48.106;11.546;2022-08-01T03:34:08;4.57;;;2.67;;
27199;SDS011;14714;48.106;11.546;2022-08-01T03:36:38;3.55;;;2.70;;
27199;SDS011;14714;48.106;11.546;2022-08-01T03:39:30;4.43;;;2.67;;
27199;SDS011;14714;48.106;11.546;2022-08-01T03:42:05;2.78;;;2.40;;
27199;SDS011;14714;48.106;11.546;2022-08-01T03:44:38;2.75;;;2.42;;
27199;SDS011;14714;48.106;11.546;2022-08-01T03:47:08;3.38;;;2.45;;
27199;SDS011;14714;48.106;11.546;2022-08-01T03:49:38;5.43;;;2.55;;
27199;SDS011;14714;48.106;11.546;2022-08-01T03:52:09;2.65;;;2.45;;
27199;SDS011;14714;48.106;11.546;2022-08-01T03:54:37;2.95;;;2.55;;
27199;SDS011;14714;48.106;11.546;2022-08-01T03:57:08;3.53;;;2.60;;
27199;SDS011;14714;48.106;11.546;2022-08-01T03:59:59;4.20;;;2.42;;
27199;SDS011;14714;48.106;11.546;2022-08-01T04:04:54;2.83;;;2.55;;
27199;SDS011;14714;48.106;11.546;2022-08-01T04:07:28;2.92;;;2.60;;
27199;SDS011;14714;48.106;11.546;2022-08-01T04:09:59;3.17;;;2.63;;
27199;SDS011;14714;48.106;11.546;2022-08-01T04:12:26;3.03;;;2.72;;
27199;SDS011;14714;48.106;11.546;2022-08-01T04:14:53;3.92;;;2.65;;
27199;SDS011;14714;48.106;11.546;2022-08-01T04:17:20;3.28;;;2.70;;
27199;SDS011;14714;48.106;11.546;2022-08-01T04:19:46;2.80;;;2.55;;
27199;SDS011;14714;48.106;11.546;2022-08-01T04:22:14;3.63;;;2.47;;
27199;SDS011;14714;48.106;11.546;2022-08-01T04:24:42;3.63;;;2.60;;
27199;SDS011;14714;48.106;11.546;2022-08-01T04:27:23;4.30;;;2.92;;
27199;SDS011;14714;48.106;11.546;2022-08-01T04:30:16;2.75;;;2.38;;
27199;SDS011;14714;48.106;11.546;2022-08-01T04:35:13;2.92;;;2.53;;
27199;SDS011;14714;48.106;11.546;2022-08-01T04:38:04;2.80;;;2.50;;
27199;SDS011;14714;48.106;11.546;2022-08-01T04:40:32;3.17;;;2.65;;
27199;SDS011;14714;48.106;11.546;2022-08-01T04:43:02;3.10;;;2.80;;
27199;SDS011;14714;48.106;11.546;2022-08-01T04:45:30;4.80;;;2.85;;
27199;SDS011;14714;48.106;11.546;2022-08-01T04:47:58;3.13;;;2.53;;
27199;SDS011;14714;48.106;11.546;2022-08-01T04:50:26;3.47;;;2.70;;
27199;SDS011;14714;48.106;11.546;2022-08-01T04:52:53;3.72;;;2.60;;
27199;SDS011;14714;48.106;11.546;2022-08-01T04:55:20;2.88;;;2.50;;
27199;SDS011;14714;48.106;11.546;2022-08-01T04:57:47;4.03;;;2.97;;
27199;SDS011;14714;48.106;11.546;2022-08-01T05:00:14;3.42;;;2.63;;
27199;SDS011;14714;48.106;11.546;2022-08-01T05:02:44;4.10;;;2.35;;
27199;SDS011;14714;48.106;11.546;2022-08-01T05:05:12;3.08;;;2.60;;
27199;SDS011;14714;48.106;11.546;2022-08-01T05:07:39;4.25;;;2.67;;
27199;SDS011;14714;48.106;11.546;2022-08-01T05:10:11;3.28;;;2.67;;
27199;SDS011;14714;48.106;11.546;2022-08-01T05:12:38;6.63;;;2.38;;
27199;SDS011;14714;48.106;11.546;2022-08-01T05:15:05;3.03;;;2.70;;
27199;SDS011;14714;48.106;11.546;2022-08-01T05:17:40;3.03;;;2.60;;
27199;SDS011;14714;48.106;11.546;2022-08-01T05:20:08;3.35;;;2.65;;
27199;SDS011;14714;48.106;11.546;2022-08-01T05:22:37;3.78;;;2.60;;
27199;SDS011;14714;48.106;11.546;2022-08-01T05:25:04;3.30;;;2.45;;
27199;SDS011;14714;48.106;11.546;2022-08-01T05:27:32;3.38;;;2.45;;
27199;SDS011;14714;48.106;11.546;2022-08-01T05:30:05;5.05;;;2.65;;
27199;SDS011;14714;48.106;11.546;2022-08-01T05:32:35;3.83;;;2.25;;
27199;SDS011;14714;48.106;11.546;2022-08-01T05:35:03;2.92;;;2.63;;
27199;SDS011;14714;48.106;11.546;2022-08-01T05:37:30;3.28;;;2.50;;
27199;SDS011;14714;48.106;11.546;2022-08-01T05:39:57;4.03;;;2.30;;
27199;SDS011;14714;48.106;11.546;2022-08-01T05:42:24;5.88;;;2.50;;
27199;SDS011;14714;48.106;11.546;2022-08-01T05:44:51;4.20;;;2.83;;
27199;SDS011;14714;48.106;11.546;2022-08-01T05:47:18;2.63;;;2.30;;
27199;SDS011;14714;48.106;11.546;2022-08-01T05:49:45;2.83;;;2.35;;
27199;SDS011;14714;48.106;11.546;2022-08-01T05:52:12;3.00;;;2.30;;
27199;SDS011;14714;48.106;11.546;2022-08-01T05:54:39;3.38;;;2.33;;
27199;SDS011;14714;48.106;11.546;2022-08-01T05:57:06;2.97;;;2.30;;
27199;SDS011;14714;48.106;11.546;2022-08-01T05:59:33;7.50;;;2.38;;
27199;SDS011;14714;48.106;11.546;2022-08-01T06:02:00;4.95;;;2.25;;
27199;SDS011;14714;48.106;11.546;2022-08-01T06:04:27;4.30;;;2.22;;
27199;SDS011;14714;48.106;11.546;2022-08-01T06:06:54;6.05;;;2.33;;
27199;SDS011;14714;48.106;11.546;2022-08-01T06:09:21;3.60;;;2.40;;
27199;SDS011;14714;48.106;11.546;2022-08-01T06:11:48;4.50;;;2.40;;
27199;SDS011;14714;48.106;11.546;2022-08-01T06:14:14;5.50;;;2.50;;
27199;SDS011;14714;48.106;11.546;2022-08-01T06:16:41;3.70;;;2.10;;
27199;SDS011;14714;48.106;11.546;2022-08-01T06:19:08;5.97;;;2.20;;
27199;SDS011;14714;48.106;11.546;2022-08-01T06:21:35;4.05;;;2.55;;
27199;SDS011;14714;48.106;11.546;2022-08-01T06:24:02;3.72;;;2.25;;
27199;SDS011;14714;48.106;11.546;2022-08-01T06:26:29;3.05;;;2.08;;
27199;SDS011;14714;48.106;11.546;2022-08-01T06:28:57;2.63;;;2.33;;
27199;SDS011;14714;48.106;11.546;2022-08-01T06:31:24;4.25;;;2.45;;
27199;SDS011;14714;48.106;11.546;2022-08-01T06:33:56;3.40;;;2.20;;
27199;SDS011;14714;48.106;11.546;2022-08-01T06:36:23;3.97;;;2.20;;
27199;SDS011;14714;48.106;11.546;2022-08-01T06:38:51;4.05;;;2.20;;
27199;SDS011;14714;48.106;11.546;2022-08-01T06:41:18;3.72;;;2.08;;
27199;SDS011;14714;48.106;11.546;2022-08-01T06:43:45;5.15;;;2.10;;
27199;SDS011;14714;48.106;11.546;2022-08-01T06:46:12;6.47;;;2.83;;
27199;SDS011;14714;48.106;11.546;2022-08-01T06:48:39;4.13;;;2.10;;
27199;SDS011;14714;48.106;11.546;2022-08-01T06:51:06;6.20;;;2.28;;
27199;SDS011;14714;48.106;11.546;2022-08-01T06:53:36;3.47;;;2.40;;
27199;SDS011;14714;48.106;11.546;2022-08-01T06:56:04;2.40;;;2.20;;
27199;SDS011;14714;48.106;11.546;2022-08-01T06:58:32;4.05;;;2.45;;
27199;SDS011;14714;48.106;11.546;2022-08-01T07:01:01;5.77;;;2.20;;
27199;SDS011;14714;48.106;11.546;2022-08-01T07:03:33;4.85;;;2.10;;
27199;SDS011;14714;48.106;11.546;2022-08-01T07:06:19;4.68;;;2.20;;
27199;SDS011;14714;48.106;11.546;2022-08-01T07:08:46;4.05;;;2.40;;
27199;SDS011;14714;48.106;11.546;2022-08-01T07:11:13;2.88;;;2.17;;
27199;SDS011;14714;48.106;11.546;2022-08-01T07:13:40;4.13;;;2.40;;
27199;SDS011;14714;48.106;11.546;2022-08-01T07:16:11;4.47;;;2.28;;
27199;SDS011;14714;48.106;11.546;2022-08-01T07:18:38;5.20;;;2.50;;
27199;SDS011;14714;48.106;11.546;2022-08-01T07:21:05;3.30;;;2.50;;
27199;SDS011;14714;48.106;11.546;2022-08-01T07:23:52;2.50;;;2.30;;
27199;SDS011;14714;48.106;11.546;2022-08-01T07:26:21;2.55;;;2.30;;
27199;SDS011;14714;48.106;11.546;2022-08-01T07:28:47;3.00;;;2.20;;
27199;SDS011;14714;48.106;11.546;2022-08-01T07:31:14;2.33;;;2.13;;
27199;SDS011;14714;48.106;11.546;2022-08-01T07:33:41;4.13;;;2.60;;
27199;SDS011;14714;48.106;11.546;2022-08-01T07:36:14;2.53;;;2.20;;
27199;SDS011;14714;48.106;11.546;2022-08-01T07:38:42;6.28;;;2.42;;
27199;SDS011;14714;48.106;11.546;2022-08-01T07:41:09;3.13;;;2.25;;
27199;SDS011;14714;48.106;11.546;2022-08-01T07:43:36;4.07;;;2.30;;
27199;SDS011;14714;48.106;11.546;2022-08-01T07:46:03;2.33;;;2.00;;
27199;SDS011;14714;48.106;11.546;2022-08-01T07:48:31;2.35;;;2.15;;
27199;SDS011;14714;48.106;11.546;2022-08-01T07:50:58;2.50;;;2.13;;
27199;SDS011;14714;48.106;11.546;2022-08-01T07:53:24;4.13;;;2.30;;
27199;SDS011;14714;48.106;11.546;2022-08-01T07:55:51;4.28;;;2.20;;
27199;SDS011;14714;48.106;11.546;2022-08-01T07:58:18;3.20;;;2.30;;
27199;SDS011;14714;48.106;11.546;2022-08-01T08:00:45;3.40;;;2.42;;
27199;SDS011;14714;48.106;11.546;2022-08-01T08:03:12;4.80;;;2.35;;
27199;SDS011;14714;48.106;11.546;2022-08-01T08:05:38;3.00;;;2.40;;
27199;SDS011;14714;48.106;11.546;2022-08-01T08:08:25;4.05;;;2.30;;
27199;SDS011;14714;48.106;11.546;2022-08-01T08:10:52;2.78;;;2.40;;
27199;SDS011;14714;48.106;11.546;2022-08-01T08:13:19;2.50;;;2.10;;
27199;SDS011;14714;48.106;11.546;2022-08-01T08:15:47;2.83;;;2.22;;
27199;SDS011;14714;48.106;11.546;2022-08-01T08:18:14;2.58;;;2.38;;
27199;SDS011;14714;48.106;11.546;2022-08-01T08:20:41;3.35;;;2.30;;
27199;SDS011;14714;48.106;11.546;2022-08-01T08:23:08;2.90;;;2.40;;
27199;SDS011;14714;48.106;11.546;2022-08-01T08:26:08;3.72;;;2.40;;
27199;SDS011;14714;48.106;11.546;2022-08-01T08:28:35;2.58;;;2.22;;
27199;SDS011;14714;48.106;11.546;2022-08-01T08:31:02;5.38;;;2.50;;
27199;SDS011;14714;48.106;11.546;2022-08-01T08:33:29;3.90;;;2.25;;
27199;SDS011;14714;48.106;11.546;2022-08-01T08:35:56;4.32;;;2.42;;
27199;SDS011;14714;48.106;11.546;2022-08-01T08:38:23;3.10;;;2.58;;
27199;SDS011;14714;48.106;11.546;2022-08-01T08:40:55;4.93;;;2.38;;
27199;SDS011;14714;48.106;11.546;2022-08-01T08:43:24;3.83;;;2.35;;
27199;SDS011;14714;48.106;11.546;2022-08-01T08:45:52;3.30;;;2.40;;
27199;SDS011;14714;48.106;11.546;2022-08-01T08:48:25;5.07;;;2.58;;
27199;SDS011;14714;48.106;11.546;2022-08-01T08:50:53;5.50;;;2.17;;
27199;SDS011;14714;48.106;11.546;2022-08-01T08:53:21;2.75;;;2.20;;
27199;SDS011;14714;48.106;11.546;2022-08-01T08:55:48;3.25;;;2.35;;
27199;SDS011;14714;48.106;11.546;2022-08-01T08:58:21;2.97;;;2.40;;
27199;SDS011;14714;48.106;11.546;2022-08-01T09:00:57;4.60;;;2.50;;
27199;SDS011;14714;48.106;11.546;2022-08-01T09:03:24;3.45;;;1.90;;
27199;SDS011;14714;48.106;11.546;2022-08-01T09:05:51;2.78;;;2.10;;
27199;SDS011;14714;48.106;11.546;2022-08-01T09:08:18;2.53;;;2.20;;
27199;SDS011;14714;48.106;11.546;2022-08-01T09:10:44;3.38;;;2.10;;
27199;SDS011;14714;48.106;11.546;2022-08-01T09:13:12;4.45;;;2.35;;
27199;SDS011;14714;48.106;11.546;2022-08-01T09:15:51;4.13;;;2.20;;
27199;SDS011;14714;48.106;11.546;2022-08-01T09:18:30;2.67;;;2.10;;
27199;SDS011;14714;48.106;11.546;2022-08-01T09:21:19;3.03;;;2.22;;
27199;SDS011;14714;48.106;11.546;2022-08-01T09:23:53;2.88;;;2.42;;
27199;SDS011;14714;48.106;11.546;2022-08-01T09:26:22;3.05;;;1.90;;
27199;SDS011;14714;48.106;11.546;2022-08-01T09:28:56;6.18;;;2.70;;
27199;SDS011;14714;48.106;11.546;2022-08-01T09:31:23;3.10;;;2.20;;
27199;SDS011;14714;48.106;11.546;2022-08-01T09:34:03;9.57;;;3.17;;
27199;SDS011;14714;48.106;11.546;2022-08-01T09:36:47;4.47;;;1.95;;
27199;SDS011;14714;48.106;11.546;2022-08-01T09:39:29;3.92;;;2.00;;
27199;SDS011;14714;48.106;11.546;2022-08-01T09:41:58;3.97;;;2.00;;
27199;SDS011;14714;48.106;11.546;2022-08-01T09:44:41;5.40;;;1.98;;
27199;SDS011;14714;48.106;11.546;2022-08-01T09:47:20;1.90;;;1.80;;
27199;SDS011;14714;48.106;11.546;2022-08-01T09:49:54;6.57;;;2.38;;
27199;SDS011;14714;48.106;11.546;2022-08-01T09:52:26;10.77;;;3.00;;
27199;SDS011;14714;48.106;11.546;2022-08-01T09:57:24;2.72;;;2.15;;
27199;SDS011;14714;48.106;11.546;2022-08-01T09:59:53;3.30;;;1.80;;
27199;SDS011;14714;48.106;11.546;2022-08-01T10:02:34;2.78;;;1.95;;
27199;SDS011;14714;48.106;11.546;2022-08-01T10:05:07;2.05;;;1.80;;
27199;SDS011;14714;48.106;11.546;2022-08-01T10:07:56;4.57;;;2.10;;
27199;SDS011;14714;48.106;11.546;2022-08-01T10:10:33;2.50;;;1.70;;
27199;SDS011;14714;48.106;11.546;2022-08-01T10:13:02;3.33;;;1.95;;
27199;SDS011;14714;48.106;11.546;2022-08-01T10:15:30;3.00;;;2.03;;
27199;SDS011;14714;48.106;11.546;2022-08-01T10:18:04;2.40;;;1.90;;
27199;SDS011;14714;48.106;11.546;2022-08-01T10:20:51;2.47;;;1.92;;
27199;SDS011;14714;48.106;11.546;2022-08-01T10:23:23;3.60;;;1.95;;
27199;SDS011;14714;48.106;11.546;2022-08-01T10:26:06;2.28;;;1.88;;
27199;SDS011;14714;48.106;11.546;2022-08-01T10:28:34;2.75;;;2.10;;
27199;SDS011;14714;48.106;11.546;2022-08-01T10:31:04;2.42;;;1.95;;
27199;SDS011;14714;48.106;11.546;2022-08-01T10:33:40;3.83;;;2.13;;
27199;SDS011;14714;48.106;11.546;2022-08-01T10:36:21;3.25;;;2.03;;
27199;SDS011;14714;48.106;11.546;2022-08-01T10:38:51;6.32;;;2.20;;
27199;SDS011;14714;48.106;11.546;2022-08-01T10:41:20;1.73;;;1.60;;
27199;SDS011;14714;48.106;11.546;2022-08-01T10:43:47;5.03;;;2.10;;
27199;SDS011;14714;48.106;11.546;2022-08-01T10:46:14;2.15;;;1.73;;
27199;SDS011;14714;48.106;11.546;2022-08-01T10:48:45;2.72;;;2.08;;
27199;SDS011;14714;48.106;11.546;2022-08-01T10:51:13;2.08;;;1.70;;
27199;SDS011;14714;48.106;11.546;2022-08-01T10:53:51;3.97;;;1.77;;
27199;SDS011;14714;48.106;11.546;2022-08-01T10:56:21;3.22;;;1.90;;
27199;SDS011;14714;48.106;11.546;2022-08-01T10:58:55;3.22;;;1.80;;
27199;SDS011;14714;48.106;11.546;2022-08-01T11:01:36;5.05;;;1.83;;
27199;SDS011;14714;48.106;11.546;2022-08-01T11:04:10;3.78;;;1.80;;
27199;SDS011;14714;48.106;11.546;2022-08-01T11:06:51;2.50;;;1.90;;
27199;SDS011;14714;48.106;11.546;2022-08-01T11:09:42;5.53;;;2.03;;
27199;SDS011;14714;48.106;11.546;2022-08-01T11:12:17;12.98;;;2.30;;
27199;SDS011;14714;48.106;11.546;2022-08-01T11:20:11;4.32;;;1.90;;
27199;SDS011;14714;48.106;11.546;2022-08-01T11:28:24;6.72;;;2.10;;
27199;SDS011;14714;48.106;11.546;2022-08-01T11:41:11;2.78;;;1.83;;
27199;SDS011;14714;48.106;11.546;2022-08-01T11:46:50;2.10;;;1.90;;
27199;SDS011;14714;48.106;11.546;2022-08-01T11:52:08;2.85;;;1.88;;
27199;SDS011;14714;48.106;11.546;2022-08-01T11:57:26;4.70;;;1.80;;
27199;SDS011;14714;48.106;11.546;2022-08-01T12:00:02;2.88;;;1.90;;
27199;SDS011;14714;48.106;11.546;2022-08-01T12:02:40;1.60;;;1.50;;
27199;SDS011;14714;48.106;11.546;2022-08-01T12:05:12;2.75;;;1.50;;
27199;SDS011;14714;48.106;11.546;2022-08-01T12:07:41;3.33;;;1.80;;
27199;SDS011;14714;48.106;11.546;2022-08-01T12:12:41;3.92;;;1.83;;
27199;SDS011;14714;48.106;11.546;2022-08-01T12:15:13;2.00;;;1.65;;
27199;SDS011;14714;48.106;11.546;2022-08-01T12:17:46;1.88;;;1.67;;
27199;SDS011;14714;48.106;11.546;2022-08-01T12:20:24;4.95;;;1.80;;
27199;SDS011;14714;48.106;11.546;2022-08-01T12:22:56;2.58;;;1.60;;
27199;SDS011;14714;48.106;11.546;2022-08-01T12:25:34;5.07;;;1.73;;
27199;SDS011;14714;48.106;11.546;2022-08-01T12:28:03;4.47;;;1.80;;
27199;SDS011;14714;48.106;11.546;2022-08-01T12:30:31;2.60;;;1.67;;
27199;SDS011;14714;48.106;11.546;2022-08-01T12:33:03;3.00;;;1.75;;
27199;SDS011;14714;48.106;11.546;2022-08-01T12:35:31;1.88;;;1.52;;
27199;SDS011;14714;48.106;11.546;2022-08-01T12:38:00;3.63;;;1.67;;
27199;SDS011;14714;48.106;11.546;2022-08-01T12:40:30;3.05;;;1.60;;
27199;SDS011;14714;48.106;11.546;2022-08-01T12:43:00;3.53;;;1.40;;
27199;SDS011;14714;48.106;11.546;2022-08-01T12:45:33;2.22;;;1.60;;
27199;SDS011;14714;48.106;11.546;2022-08-01T12:48:22;2.95;;;1.80;;
27199;SDS011;14714;48.106;11.546;2022-08-01T12:50:50;2.30;;;1.40;;
27199;SDS011;14714;48.106;11.546;2022-08-01T12:53:18;3.50;;;1.67;;
27199;SDS011;14714;48.106;11.546;2022-08-01T12:55:48;1.80;;;1.52;;
27199;SDS011;14714;48.106;11.546;2022-08-01T12:58:29;2.15;;;1.40;;
27199;SDS011;14714;48.106;11.546;2022-08-01T13:01:10;2.80;;;1.30;;
27199;SDS011;14714;48.106;11.546;2022-08-01T13:03:38;3.13;;;1.30;;
27199;SDS011;14714;48.106;11.546;2022-08-01T13:06:15;3.60;;;1.50;;
27199;SDS011;14714;48.106;11.546;2022-08-01T13:08:43;2.10;;;1.40;;
27199;SDS011;14714;48.106;11.546;2022-08-01T13:11:12;1.85;;;1.45;;
27199;SDS011;14714;48.106;11.546;2022-08-01T13:16:14;3.03;;;1.55;;
27199;SDS011;14714;48.106;11.546;2022-08-01T13:18:59;2.65;;;1.70;;
27199;SDS011;14714;48.106;11.546;2022-08-01T13:21:30;6.40;;;1.45;;
27199;SDS011;14714;48.106;11.546;2022-08-01T13:24:22;1.40;;;1.30;;
27199;SDS011;14714;48.106;11.546;2022-08-01T13:29:30;4.57;;;1.50;;
27199;SDS011;14714;48.106;11.546;2022-08-01T13:35:02;5.13;;;1.77;;
27199;SDS011;14714;48.106;11.546;2022-08-01T13:37:31;6.57;;;1.80;;
27199;SDS011;14714;48.106;11.546;2022-08-01T13:39:58;2.85;;;1.75;;
27199;SDS011;14714;48.106;11.546;2022-08-01T13:42:25;3.00;;;1.77;;
27199;SDS011;14714;48.106;11.546;2022-08-01T13:44:51;2.78;;;1.70;;
27199;SDS011;14714;48.106;11.546;2022-08-01T13:47:19;3.08;;;1.73;;
27199;SDS011;14714;48.106;11.546;2022-08-01T13:49:56;4.05;;;1.50;;
27199;SDS011;14714;48.106;11.546;2022-08-01T13:52:27;4.65;;;1.63;;
27199;SDS011;14714;48.106;11.546;2022-08-01T13:54:54;4.13;;;1.70;;
27199;SDS011;14714;48.106;11.546;2022-08-01T13:57:20;2.22;;;1.60;;
27199;SDS011;14714;48.106;11.546;2022-08-01T13:59:47;2.78;;;1.40;;
27199;SDS011;14714;48.106;11.546;2022-08-01T14:02:14;5.75;;;1.48;;
27199;SDS011;14714;48.106;11.546;2022-08-01T14:04:41;3.30;;;1.60;;
27199;SDS011;14714;48.106;11.546;2022-08-01T14:07:08;1.80;;;1.48;;
27199;SDS011;14714;48.106;11.546;2022-08-01T14:09:40;2.38;;;1.50;;
27199;SDS011;14714;48.106;11.546;2022-08-01T14:12:28;2.92;;;1.30;;
27199;SDS011;14714;48.106;11.546;2022-08-01T14:14:55;5.00;;;1.50;;
27199;SDS011;14714;48.106;11.546;2022-08-01T14:17:22;2.72;;;1.60;;
27199;SDS011;14714;48.106;11.546;2022-08-01T14:19:49;4.03;;;1.42;;
27199;SDS011;14714;48.106;11.546;2022-08-01T14:22:16;2.70;;;1.90;;
27199;SDS011;14714;48.106;11.546;2022-08-01T14:24:43;3.05;;;1.60;;
27199;SDS011;14714;48.106;11.546;2022-08-01T14:27:10;1.90;;;1.45;;
27199;SDS011;14714;48.106;11.546;2022-08-01T14:29:37;3.10;;;1.58;;
27199;SDS011;14714;48.106;11.546;2022-08-01T14:32:24;2.65;;;1.80;;
27199;SDS011;14714;48.106;11.546;2022-08-01T14:34:54;2.47;;;1.90;;
27199;SDS011;14714;48.106;11.546;2022-08-01T14:37:22;2.72;;;1.80;;
27199;SDS011;14714;48.106;11.546;2022-08-01T14:39:56;1.92;;;1.60;;
27199;SDS011;14714;48.106;11.546;2022-08-01T14:42:24;2.20;;;1.80;;
27199;SDS011;14714;48.106;11.546;2022-08-01T14:44:51;3.00;;;1.75;;
27199;SDS011;14714;48.106;11.546;2022-08-01T14:47:18;4.57;;;2.20;;
27199;SDS011;14714;48.106;11.546;2022-08-01T14:49:47;4.45;;;2.47;;
27199;SDS011;14714;48.106;11.546;2022-08-01T14:52:15;3.05;;;2.13;;
27199;SDS011;14714;48.106;11.546;2022-08-01T14:54:42;4.90;;;2.17;;
27199;SDS011;14714;48.106;11.546;2022-08-01T14:57:09;4.47;;;2.05;;
27199;SDS011;14714;48.106;11.546;2022-08-01T14:59:36;4.65;;;2.10;;
27199;SDS011;14714;48.106;11.546;2022-08-01T15:02:03;3.67;;;2.28;;
27199;SDS011;14714;48.106;11.546;2022-08-01T15:04:30;4.25;;;2.05;;
27199;SDS011;14714;48.106;11.546;2022-08-01T15:06:57;4.70;;;2.10;;
27199;SDS011;14714;48.106;11.546;2022-08-01T15:09:24;3.35;;;1.90;;
27199;SDS011;14714;48.106;11.546;2022-08-01T15:11:51;6.38;;;2.00;;
27199;SDS011;14714;48.106;11.546;2022-08-01T15:14:18;2.30;;;2.10;;
27199;SDS011;14714;48.106;11.546;2022-08-01T15:17:03;4.10;;;2.05;;
27199;SDS011;14714;48.106;11.546;2022-08-01T15:19:30;4.50;;;1.80;;
27199;SDS011;14714;48.106;11.546;2022-08-01T15:21:57;2.55;;;1.90;;
27199;SDS011;14714;48.106;11.546;2022-08-01T15:24:26;4.90;;;2.00;;
27199;SDS011;14714;48.106;11.546;2022-08-01T15:26:53;4.85;;;2.30;;
27199;SDS011;14714;48.106;11.546;2022-08-01T15:29:20;2.88;;;1.95;;
27199;SDS011;14714;48.106;11.546;2022-08-01T15:31:47;2.45;;;2.10;;
27199;SDS011;14714;48.106;11.546;2022-08-01T15:34:14;5.68;;;2.45;;
27199;SDS011;14714;48.106;11.546;2022-08-01T15:36:41;4.57;;;2.30;;
27199;SDS011;14714;48.106;11.546;2022-08-01T15:39:09;2.47;;;1.98;;
27199;SDS011;14714;48.106;11.546;2022-08-01T15:41:37;4.00;;;2.30;;
27199;SDS011;14714;48.106;11.546;2022-08-01T15:44:03;3.03;;;2.03;;
27199;SDS011;14714;48.106;11.546;2022-08-01T15:46:30;4.68;;;2.10;;
27199;SDS011;14714;48.106;11.546;2022-08-01T15:48:58;3.25;;;2.30;;
27199;SDS011;14714;48.106;11.546;2022-08-01T15:51:30;6.20;;;2.40;;
27199;SDS011;14714;48.106;11.546;2022-08-01T15:53:58;5.47;;;2.20;;
27199;SDS011;14714;48.106;11.546;2022-08-01T15:56:37;6.18;;;2.55;;
27199;SDS011;14714;48.106;11.546;2022-08-01T15:59:05;3.10;;;2.33;;